Time;durP1;ratioP1;P1;durP2;ratioP2;P2;SDS_P1;SDS_P2;PMS_P1;PMS_P2;Temp;Humidity;BMP_temperature;BMP_pressure;BME280_temperature;BME280_humidity;BME280_pressure;Samples;Min_cycle;Max_cycle;Signal;HPM_P1;HPM_P2
2022/09/11 00:00:45;;;;;;;10.13;9.13;;;;;;;;;;4983753;28;20047;-81
2022/09/11 00:03:10;;;;;;;11.82;9.85;;;;;;;;;;4969484;28;20125;-81
2022/09/11 00:05:38;;;;;;;14.25;9.25;;;;;;;;;;4970167;28;20686;-80
2022/09/11 00:08:04;;;;;;;10.50;9.15;;;;;;;;;;4969380;28;20054;-81
2022/09/11 00:10:33;;;;;;;9.57;8.60;;;;;;;;;;4972062;28;20525;-81
2022/09/11 00:12:59;;;;;;;9.80;8.77;;;;;;;;;;4987331;28;20051;-81
2022/09/11 00:15:25;;;;;;;10.82;8.82;;;;;;;;;;4958326;28;20066;-80
2022/09/11 00:17:51;;;;;;;10.88;9.52;;;;;;;;;;4985297;28;20058;-81
2022/09/11 00:20:17;;;;;;;9.07;8.18;;;;;;;;;;4970020;28;20051;-81
2022/09/11 00:22:43;;;;;;;12.98;9.55;;;;;;;;;;4987564;28;20108;-80
2022/09/11 00:25:09;;;;;;;10.30;9.07;;;;;;;;;;4988625;28;20050;-80
2022/09/11 00:27:35;;;;;;;10.18;8.38;;;;;;;;;;4989474;28;20039;-80
2022/09/11 00:30:02;;;;;;;9.90;8.90;;;;;;;;;;4989182;28;20053;-80
2022/09/11 00:32:28;;;;;;;10.93;8.95;;;;;;;;;;4969812;28;20419;-80
2022/09/11 00:34:54;;;;;;;11.10;9.23;;;;;;;;;;4969201;28;20630;-80
2022/09/11 00:37:20;;;;;;;10.18;8.52;;;;;;;;;;4973318;28;20062;-80
2022/09/11 00:39:48;;;;;;;9.60;8.55;;;;;;;;;;4973648;28;20054;-80
2022/09/11 00:42:14;;;;;;;10.90;9.25;;;;;;;;;;4984155;28;20085;-80
2022/09/11 00:44:40;;;;;;;12.35;9.20;;;;;;;;;;4977060;28;20389;-80
2022/09/11 00:47:10;;;;;;;9.93;8.70;;;;;;;;;;4973080;28;20049;-80
2022/09/11 00:49:42;;;;;;;10.45;8.63;;;;;;;;;;4987093;28;20053;-80
2022/09/11 00:52:11;;;;;;;9.82;8.82;;;;;;;;;;4976122;28;20488;-80
2022/09/11 00:54:41;;;;;;;11.15;9.43;;;;;;;;;;4973080;28;20047;-81
2022/09/11 00:57:08;;;;;;;13.77;9.80;;;;;;;;;;4973681;28;20043;-80
2022/09/11 00:59:34;;;;;;;12.07;10.05;;;;;;;;;;4972361;28;20064;-81
2022/09/11 01:02:01;;;;;;;13.80;10.02;;;;;;;;;;4973212;28;20480;-80
2022/09/11 01:04:28;;;;;;;12.65;10.90;;;;;;;;;;4972968;28;20377;-80
2022/09/11 01:06:55;;;;;;;13.75;9.90;;;;;;;;;;4972998;28;20514;-80
2022/09/11 01:09:23;;;;;;;11.65;10.07;;;;;;;;;;4973107;28;20066;-80
2022/09/11 01:11:58;;;;;;;13.05;11.40;;;;;;;;;;4972757;28;20053;-81
2022/09/11 01:14:30;;;;;;;11.90;10.70;;;;;;;;;;4951377;28;20094;-80
2022/09/11 01:17:04;;;;;;;11.50;10.30;;;;;;;;;;4991862;28;20457;-80
2022/09/11 01:19:36;;;;;;;11.63;10.27;;;;;;;;;;4975650;28;20050;-80
2022/09/11 01:22:21;;;;;;;13.43;10.80;;;;;;;;;;4975864;28;20121;-80
2022/09/11 01:25:08;;;;;;;13.02;11.30;;;;;;;;;;4972732;28;20043;-80
2022/09/11 01:27:44;;;;;;;14.52;10.88;;;;;;;;;;4972979;28;20051;-80
2022/09/11 01:30:10;;;;;;;12.93;11.27;;;;;;;;;;4971966;28;20039;-80
2022/09/11 01:32:45;;;;;;;12.43;11.13;;;;;;;;;;4971056;28;20086;-80
2022/09/11 01:35:21;;;;;;;12.27;10.97;;;;;;;;;;4972027;28;20673;-80
2022/09/11 01:37:56;;;;;;;13.77;12.27;;;;;;;;;;4975105;28;21019;-80
2022/09/11 01:40:52;;;;;;;14.30;11.90;;;;;;;;;;4989843;28;20050;-80
2022/09/11 01:43:29;;;;;;;12.80;10.67;;;;;;;;;;4968896;28;20058;-80
2022/09/11 01:45:57;;;;;;;13.75;11.27;;;;;;;;;;4990699;28;20053;-80
2022/09/11 01:48:25;;;;;;;13.48;11.43;;;;;;;;;;4988532;28;20273;-80
2022/09/11 01:50:54;;;;;;;13.70;12.15;;;;;;;;;;4971539;28;20066;-80
2022/09/11 01:53:21;;;;;;;15.65;12.32;;;;;;;;;;4974541;28;20050;-80
2022/09/11 01:56:09;;;;;;;13.82;12.00;;;;;;;;;;4972320;28;20082;-80
2022/09/11 01:58:35;;;;;;;13.13;11.75;;;;;;;;;;4971607;28;20085;-80
2022/09/11 02:01:05;;;;;;;13.98;11.45;;;;;;;;;;4986982;28;20042;-81
2022/09/11 02:03:35;;;;;;;13.68;12.25;;;;;;;;;;4972460;28;20046;-80
2022/09/11 02:06:07;;;;;;;13.45;12.05;;;;;;;;;;4984990;28;20053;-80
2022/09/11 02:08:36;;;;;;;14.75;12.40;;;;;;;;;;4982060;28;20039;-81
2022/09/11 02:11:05;;;;;;;12.82;11.43;;;;;;;;;;4972047;28;20062;-81
2022/09/11 02:13:35;;;;;;;14.80;11.48;;;;;;;;;;4980626;28;20140;-81
2022/09/11 02:16:06;;;;;;;12.63;11.30;;;;;;;;;;4969409;28;20051;-80
2022/09/11 02:18:41;;;;;;;13.77;11.75;;;;;;;;;;4987978;28;20046;-81
2022/09/11 02:21:07;;;;;;;12.00;10.50;;;;;;;;;;4971704;28;20051;-81
2022/09/11 02:23:33;;;;;;;12.48;11.18;;;;;;;;;;4971834;28;20039;-81
2022/09/11 02:26:00;;;;;;;13.18;11.75;;;;;;;;;;4970922;28;20671;-80
2022/09/11 02:28:27;;;;;;;17.45;12.63;;;;;;;;;;4970728;28;20082;-81
2022/09/11 02:30:56;;;;;;;15.85;12.13;;;;;;;;;;4973339;28;20051;-81
2022/09/11 02:33:33;;;;;;;14.48;11.82;;;;;;;;;;4983555;28;20049;-80
2022/09/11 02:36:08;;;;;;;14.10;11.98;;;;;;;;;;4989030;28;20065;-81
2022/09/11 02:38:55;;;;;;;13.32;11.23;;;;;;;;;;4983085;28;20066;-80
2022/09/11 02:41:27;;;;;;;12.88;11.52;;;;;;;;;;4941470;28;20127;-80
2022/09/11 02:44:02;;;;;;;12.15;10.80;;;;;;;;;;4982049;28;20120;-80
2022/09/11 02:46:42;;;;;;;13.40;11.52;;;;;;;;;;4989124;28;20034;-81
2022/09/11 02:49:25;;;;;;;12.70;10.60;;;;;;;;;;4982374;28;20547;-80
2022/09/11 02:51:59;;;;;;;14.05;10.48;;;;;;;;;;4971479;28;20082;-80
2022/09/11 02:54:52;;;;;;;12.27;11.07;;;;;;;;;;4989773;28;20042;-81
2022/09/11 02:57:18;;;;;;;12.30;10.50;;;;;;;;;;4984184;28;20066;-80
2022/09/11 02:59:52;;;;;;;12.05;10.65;;;;;;;;;;4979585;28;20039;-80
2022/09/11 03:02:18;;;;;;;12.35;11.05;;;;;;;;;;4971225;28;20051;-81
2022/09/11 03:04:44;;;;;;;11.90;10.43;;;;;;;;;;4971223;28;20499;-81
2022/09/11 03:07:11;;;;;;;11.50;10.30;;;;;;;;;;4968724;28;20169;-81
2022/09/11 03:09:37;;;;;;;11.75;10.55;;;;;;;;;;4974237;28;20050;-80
2022/09/11 03:12:04;;;;;;;11.45;10.25;;;;;;;;;;4989630;28;20074;-80
2022/09/11 03:14:30;;;;;;;12.35;10.85;;;;;;;;;;4956076;28;20563;-80
2022/09/11 03:16:56;;;;;;;12.40;10.20;;;;;;;;;;4969347;28;20055;-80
2022/09/11 03:19:22;;;;;;;13.52;11.38;;;;;;;;;;4969179;28;20047;-80
2022/09/11 03:21:50;;;;;;;12.77;11.30;;;;;;;;;;4974516;28;20398;-80
2022/09/11 03:24:18;;;;;;;14.38;12.38;;;;;;;;;;4988382;28;20057;-80
2022/09/11 03:26:44;;;;;;;13.80;11.90;;;;;;;;;;4989519;28;20046;-80
2022/09/11 03:29:11;;;;;;;15.98;11.90;;;;;;;;;;4982835;28;20078;-81
2022/09/11 03:31:37;;;;;;;13.98;11.95;;;;;;;;;;4974293;28;20164;-80
2022/09/11 03:34:03;;;;;;;14.48;12.80;;;;;;;;;;4970332;28;20509;-80
2022/09/11 03:36:29;;;;;;;16.77;12.18;;;;;;;;;;4969883;28;20039;-80
2022/09/11 03:38:55;;;;;;;14.20;11.63;;;;;;;;;;4973811;28;20062;-80
2022/09/11 03:41:21;;;;;;;12.52;11.13;;;;;;;;;;4971004;28;20451;-80
2022/09/11 03:43:47;;;;;;;12.80;11.50;;;;;;;;;;4982257;28;20522;-80
2022/09/11 03:46:13;;;;;;;11.98;10.75;;;;;;;;;;4988356;28;20054;-80
2022/09/11 03:48:39;;;;;;;11.77;10.32;;;;;;;;;;4988717;28;20049;-81
2022/09/11 03:51:05;;;;;;;12.30;11.02;;;;;;;;;;4969750;28;20046;-80
2022/09/11 03:53:32;;;;;;;14.18;10.98;;;;;;;;;;4974498;28;20090;-80
2022/09/11 03:55:59;;;;;;;12.68;10.93;;;;;;;;;;4988706;28;20046;-80
2022/09/11 03:58:25;;;;;;;12.43;10.98;;;;;;;;;;4989857;28;20039;-81
2022/09/11 04:00:51;;;;;;;14.43;11.40;;;;;;;;;;4971163;28;20055;-81
2022/09/11 04:03:18;;;;;;;13.68;11.50;;;;;;;;;;4969137;28;20047;-80
2022/09/11 04:05:55;;;;;;;11.60;10.40;;;;;;;;;;4970201;28;20511;-80
2022/09/11 04:08:21;;;;;;;12.98;11.57;;;;;;;;;;4970162;28;20051;-80
2022/09/11 04:10:47;;;;;;;12.77;11.15;;;;;;;;;;4977161;28;20133;-80
2022/09/11 04:13:13;;;;;;;14.15;11.32;;;;;;;;;;4984060;28;20041;-80
2022/09/11 04:15:39;;;;;;;12.68;11.27;;;;;;;;;;4948302;28;20070;-80
2022/09/11 04:18:07;;;;;;;15.63;12.20;;;;;;;;;;4974180;28;20050;-81
2022/09/11 04:20:33;;;;;;;13.63;11.45;;;;;;;;;;4973881;28;20072;-81
2022/09/11 04:22:59;;;;;;;12.32;11.02;;;;;;;;;;4988246;28;20035;-80
2022/09/11 04:25:25;;;;;;;13.75;11.38;;;;;;;;;;4975188;28;20086;-81
2022/09/11 04:27:51;;;;;;;14.30;10.52;;;;;;;;;;4974680;28;20039;-81
2022/09/11 04:30:18;;;;;;;11.93;10.43;;;;;;;;;;4973979;28;20051;-81
2022/09/11 04:32:45;;;;;;;12.48;10.82;;;;;;;;;;4974152;28;20062;-81
2022/09/11 04:35:11;;;;;;;11.82;10.43;;;;;;;;;;4973424;28;20059;-81
2022/09/11 04:37:37;;;;;;;12.98;11.13;;;;;;;;;;4972787;28;20058;-81
2022/09/11 04:40:03;;;;;;;12.20;10.90;;;;;;;;;;4957743;28;20051;-80
2022/09/11 04:42:29;;;;;;;12.88;10.57;;;;;;;;;;4975387;28;20043;-80
2022/09/11 04:44:55;;;;;;;11.60;10.40;;;;;;;;;;4973315;28;20057;-80
2022/09/11 04:47:21;;;;;;;11.13;10.02;;;;;;;;;;4972611;28;20038;-80
2022/09/11 04:49:47;;;;;;;11.15;9.82;;;;;;;;;;4971383;28;20090;-80
2022/09/11 04:52:14;;;;;;;13.70;10.57;;;;;;;;;;4982883;28;20572;-81
2022/09/11 04:54:40;;;;;;;16.60;12.30;;;;;;;;;;4991327;28;20058;-80
2022/09/11 04:57:07;;;;;;;14.23;11.43;;;;;;;;;;4991607;28;20054;-81
2022/09/11 04:59:34;;;;;;;13.93;11.13;;;;;;;;;;4986401;28;20054;-81
2022/09/11 05:02:00;;;;;;;14.05;11.85;;;;;;;;;;4980313;28;20050;-81
2022/09/11 05:04:26;;;;;;;13.68;11.35;;;;;;;;;;4992566;28;20046;-81
2022/09/11 05:06:52;;;;;;;13.60;10.85;;;;;;;;;;4980626;28;20507;-80
2022/09/11 05:09:19;;;;;;;15.80;12.23;;;;;;;;;;4972560;28;20126;-80
2022/09/11 05:11:45;;;;;;;13.60;11.80;;;;;;;;;;4972127;28;20133;-81
2022/09/11 05:14:11;;;;;;;12.05;10.35;;;;;;;;;;4972846;28;20042;-81
2022/09/11 05:16:37;;;;;;;16.25;11.63;;;;;;;;;;4967511;28;20122;-80
2022/09/11 05:19:04;;;;;;;13.80;11.23;;;;;;;;;;4990800;28;20042;-81
2022/09/11 05:21:30;;;;;;;12.93;10.18;;;;;;;;;;4970224;28;20357;-81
2022/09/11 05:23:57;;;;;;;14.52;12.07;;;;;;;;;;4972381;28;20412;-81
2022/09/11 05:26:25;;;;;;;14.38;11.43;;;;;;;;;;4971692;28;20050;-81
2022/09/11 05:28:55;;;;;;;14.80;10.88;;;;;;;;;;4988047;28;20483;-80
2022/09/11 05:31:21;;;;;;;13.07;10.77;;;;;;;;;;4974050;28;20117;-80
2022/09/11 05:33:47;;;;;;;13.32;11.18;;;;;;;;;;4971394;28;20047;-81
2022/09/11 05:36:14;;;;;;;12.18;10.95;;;;;;;;;;4987643;28;20046;-81
2022/09/11 05:38:40;;;;;;;14.10;12.32;;;;;;;;;;4990449;28;20046;-80
2022/09/11 05:41:07;;;;;;;12.32;10.90;;;;;;;;;;4974780;28;20058;-80
2022/09/11 05:43:34;;;;;;;13.57;11.10;;;;;;;;;;4987937;28;20042;-80
2022/09/11 05:46:00;;;;;;;13.93;11.88;;;;;;;;;;4991389;28;20112;-81
2022/09/11 05:48:33;;;;;;;12.18;10.77;;;;;;;;;;4991732;28;20118;-81
2022/09/11 05:51:00;;;;;;;16.90;11.68;;;;;;;;;;4975494;28;20042;-81
2022/09/11 05:53:27;;;;;;;11.38;10.13;;;;;;;;;;4983658;28;20092;-83
2022/09/11 05:55:53;;;;;;;13.02;10.75;;;;;;;;;;4972120;28;20047;-80
2022/09/11 05:58:20;;;;;;;10.50;9.45;;;;;;;;;;4973448;28;20051;-94
2022/09/11 06:00:46;;;;;;;12.45;10.90;;;;;;;;;;4976968;28;20104;-87
2022/09/11 06:03:16;;;;;;;11.02;9.63;;;;;;;;;;4961177;28;20047;-81
2022/09/11 06:05:43;;;;;;;10.70;9.23;;;;;;;;;;4974614;28;20050;-81
2022/09/11 06:08:09;;;;;;;10.00;8.73;;;;;;;;;;4984930;28;20050;-80
2022/09/11 06:10:36;;;;;;;10.95;8.77;;;;;;;;;;4985706;28;20057;-80
2022/09/11 06:13:02;;;;;;;11.13;9.48;;;;;;;;;;4990410;28;20495;-81
2022/09/11 06:15:28;;;;;;;10.13;9.15;;;;;;;;;;4978148;28;20042;-80
2022/09/11 06:17:54;;;;;;;11.10;9.98;;;;;;;;;;4993840;28;20097;-80
2022/09/11 06:20:21;;;;;;;11.15;9.57;;;;;;;;;;4985154;28;20106;-82
2022/09/11 06:22:47;;;;;;;12.35;10.32;;;;;;;;;;4977245;28;20152;-81
2022/09/11 06:25:13;;;;;;;12.38;10.30;;;;;;;;;;4980371;28;20047;-82
2022/09/11 06:27:39;;;;;;;12.30;9.93;;;;;;;;;;4977285;28;20492;-80
2022/09/11 06:30:05;;;;;;;11.00;9.13;;;;;;;;;;4980584;28;20046;-81
2022/09/11 06:32:31;;;;;;;9.65;8.57;;;;;;;;;;4971609;28;20124;-80
2022/09/11 06:34:57;;;;;;;11.57;10.38;;;;;;;;;;4983001;28;20472;-81
2022/09/11 06:37:23;;;;;;;10.45;9.38;;;;;;;;;;4971081;28;20504;-81
2022/09/11 06:39:50;;;;;;;13.50;11.52;;;;;;;;;;4969901;28;20133;-81
2022/09/11 06:42:18;;;;;;;12.05;10.35;;;;;;;;;;4974428;28;20042;-80
2022/09/11 06:44:44;;;;;;;14.20;11.15;;;;;;;;;;4983628;28;20057;-80
2022/09/11 06:47:12;;;;;;;11.57;10.38;;;;;;;;;;4985901;28;20046;-80
2022/09/11 06:49:38;;;;;;;14.68;11.32;;;;;;;;;;4990107;28;20050;-80
2022/09/11 06:52:04;;;;;;;13.40;12.00;;;;;;;;;;4984255;28;20122;-81
2022/09/11 06:54:30;;;;;;;15.57;11.95;;;;;;;;;;4984376;28;20081;-85
2022/09/11 06:56:56;;;;;;;13.75;11.68;;;;;;;;;;4989210;28;20133;-80
2022/09/11 06:59:23;;;;;;;12.90;10.52;;;;;;;;;;4990637;28;20104;-81
2022/09/11 07:01:50;;;;;;;14.00;11.13;;;;;;;;;;4988306;28;20420;-78
2022/09/11 07:04:16;;;;;;;14.48;11.07;;;;;;;;;;4970317;28;20069;-79
2022/09/11 07:06:43;;;;;;;13.73;12.05;;;;;;;;;;4971053;28;20408;-78
2022/09/11 07:09:09;;;;;;;16.73;12.23;;;;;;;;;;4987136;28;20082;-78
2022/09/11 07:11:35;;;;;;;13.82;11.35;;;;;;;;;;4989817;28;20195;-79
2022/09/11 07:14:04;;;;;;;11.68;10.23;;;;;;;;;;4969788;28;20574;-78
2022/09/11 07:16:30;;;;;;;13.65;11.20;;;;;;;;;;4966761;28;20519;-78
2022/09/11 07:18:57;;;;;;;16.35;12.10;;;;;;;;;;4970244;28;20081;-78
2022/09/11 07:21:24;;;;;;;12.27;10.30;;;;;;;;;;4970737;28;20079;-78
2022/09/11 07:23:53;;;;;;;13.05;11.10;;;;;;;;;;4970180;28;20065;-79
2022/09/11 07:26:19;;;;;;;12.57;11.15;;;;;;;;;;4984506;28;20050;-78
2022/09/11 07:28:49;;;;;;;13.77;10.68;;;;;;;;;;4990386;28;20054;-79
2022/09/11 07:31:22;;;;;;;11.75;10.27;;;;;;;;;;4989953;28;20144;-84
2022/09/11 07:33:48;;;;;;;12.68;11.00;;;;;;;;;;4977792;28;20501;-80
2022/09/11 07:36:15;;;;;;;11.13;9.68;;;;;;;;;;4970436;28;20069;-80
2022/09/11 07:38:42;;;;;;;11.55;9.85;;;;;;;;;;4987867;28;20051;-80
2022/09/11 07:41:09;;;;;;;13.40;9.38;;;;;;;;;;4989705;28;20137;-80
2022/09/11 07:43:35;;;;;;;6.47;5.80;;;;;;;;;;4974971;28;20058;-80
2022/09/11 07:46:02;;;;;;;7.55;5.90;;;;;;;;;;4970363;28;20129;-80
2022/09/11 07:48:29;;;;;;;9.02;7.55;;;;;;;;;;4970068;28;20042;-80
2022/09/11 07:51:05;;;;;;;9.00;7.50;;;;;;;;;;4968933;28;20058;-80
2022/09/11 07:53:36;;;;;;;6.05;5.45;;;;;;;;;;4973173;28;20054;-80
2022/09/11 07:56:03;;;;;;;7.18;5.43;;;;;;;;;;4968500;28;20062;-80
2022/09/11 07:58:33;;;;;;;7.40;6.57;;;;;;;;;;4969342;28;20050;-80
2022/09/11 08:01:01;;;;;;;8.40;6.95;;;;;;;;;;4969377;28;20628;-80
2022/09/11 08:03:27;;;;;;;12.23;7.63;;;;;;;;;;4970049;28;20046;-80
2022/09/11 08:05:56;;;;;;;8.98;7.18;;;;;;;;;;4969347;28;20114;-80
2022/09/11 08:08:22;;;;;;;7.75;6.25;;;;;;;;;;4989181;28;20053;-80
2022/09/11 08:10:48;;;;;;;7.00;5.93;;;;;;;;;;4988554;28;20050;-80
2022/09/11 08:13:15;;;;;;;8.70;6.85;;;;;;;;;;4978009;28;20057;-80
2022/09/11 08:15:50;;;;;;;8.32;6.20;;;;;;;;;;4969621;28;20400;-80
2022/09/11 08:18:16;;;;;;;6.88;4.90;;;;;;;;;;4952621;28;20440;-80
2022/09/11 08:20:43;;;;;;;5.40;4.90;;;;;;;;;;4968549;28;20050;-80
2022/09/11 08:23:09;;;;;;;7.47;5.15;;;;;;;;;;4980732;28;20045;-80
2022/09/11 08:25:36;;;;;;;6.88;4.88;;;;;;;;;;4989560;28;20125;-80
2022/09/11 08:28:02;;;;;;;7.75;5.90;;;;;;;;;;4989269;28;20035;-80
2022/09/11 08:30:28;;;;;;;5.72;5.18;;;;;;;;;;4989171;28;20042;-80
2022/09/11 08:32:54;;;;;;;5.80;5.20;;;;;;;;;;4980517;28;20039;-80
2022/09/11 08:35:20;;;;;;;6.07;5.45;;;;;;;;;;4982495;28;20093;-80
2022/09/11 08:37:46;;;;;;;6.20;5.35;;;;;;;;;;4988013;28;20090;-80
2022/09/11 08:40:12;;;;;;;7.38;5.45;;;;;;;;;;4989134;28;20061;-81
2022/09/11 08:42:43;;;;;;;7.05;5.28;;;;;;;;;;4983288;28;20110;-81
2022/09/11 08:45:13;;;;;;;6.07;4.90;;;;;;;;;;4968062;28;20054;-80
2022/09/11 08:47:41;;;;;;;7.20;4.75;;;;;;;;;;4970142;28;20117;-80
2022/09/11 08:50:11;;;;;;;6.20;4.80;;;;;;;;;;4968310;28;20055;-80
2022/09/11 08:52:38;;;;;;;6.25;4.97;;;;;;;;;;4972006;28;20101;-80
2022/09/11 08:55:05;;;;;;;6.50;5.00;;;;;;;;;;4968215;28;20059;-80
2022/09/11 08:57:37;;;;;;;6.68;5.28;;;;;;;;;;4973500;28;20058;-80
2022/09/11 09:00:08;;;;;;;5.32;4.50;;;;;;;;;;4972402;28;20047;-80
2022/09/11 09:02:44;;;;;;;6.35;5.50;;;;;;;;;;4971990;28;20047;-80
2022/09/11 09:05:31;;;;;;;7.47;5.57;;;;;;;;;;4971628;28;20055;-80
2022/09/11 09:07:57;;;;;;;7.30;6.35;;;;;;;;;;4990197;28;20112;-80
2022/09/11 09:10:38;;;;;;;7.25;6.43;;;;;;;;;;4991627;28;20054;-81
2022/09/11 09:13:04;;;;;;;7.13;6.43;;;;;;;;;;4982391;28;20058;-80
2022/09/11 09:15:41;;;;;;;8.30;6.82;;;;;;;;;;4972675;28;20039;-80
2022/09/11 09:18:10;;;;;;;9.45;7.90;;;;;;;;;;4952975;28;20174;-80
2022/09/11 09:20:39;;;;;;;8.00;7.22;;;;;;;;;;4974023;28;20133;-80
2022/09/11 09:23:12;;;;;;;8.13;6.93;;;;;;;;;;4988066;28;20038;-80
2022/09/11 09:25:39;;;;;;;9.00;7.95;;;;;;;;;;4992572;28;20057;-80
2022/09/11 09:28:30;;;;;;;11.98;7.80;;;;;;;;;;4991573;28;20046;-81
2022/09/11 09:30:58;;;;;;;9.10;7.82;;;;;;;;;;4992065;28;20140;-80
2022/09/11 09:33:31;;;;;;;11.65;8.15;;;;;;;;;;4981526;28;20046;-80
2022/09/11 09:35:59;;;;;;;10.13;8.40;;;;;;;;;;4970870;28;20097;-80
2022/09/11 09:38:30;;;;;;;7.50;5.90;;;;;;;;;;4981270;28;20082;-80
2022/09/11 09:41:05;;;;;;;5.68;4.75;;;;;;;;;;4973150;28;20445;-80
2022/09/11 09:43:40;;;;;;;6.22;5.18;;;;;;;;;;4969931;28;20137;-80
2022/09/11 09:46:14;;;;;;;7.80;6.20;;;;;;;;;;4972561;28;20137;-80
2022/09/11 09:48:40;;;;;;;6.97;6.28;;;;;;;;;;4972951;28;20051;-80
2022/09/11 09:51:11;;;;;;;8.60;6.43;;;;;;;;;;4972386;28;20152;-81
2022/09/11 09:53:40;;;;;;;7.22;6.30;;;;;;;;;;4971897;28;20047;-80
2022/09/11 09:56:06;;;;;;;8.05;6.38;;;;;;;;;;4971981;28;20207;-80
2022/09/11 09:58:36;;;;;;;16.65;6.30;;;;;;;;;;4991313;28;20042;-80
2022/09/11 10:01:02;;;;;;;7.03;6.25;;;;;;;;;;4980093;28;20057;-81
2022/09/11 10:03:28;;;;;;;8.73;6.60;;;;;;;;;;4982688;28;20038;-81
2022/09/11 10:05:55;;;;;;;7.90;6.50;;;;;;;;;;4969313;28;20043;-80
2022/09/11 10:08:35;;;;;;;4.60;4.00;;;;;;;;;;4974501;28;20049;-81
2022/09/11 10:11:02;;;;;;;6.20;3.80;;;;;;;;;;4974985;28;20412;-80
2022/09/11 10:13:40;;;;;;;5.00;3.50;;;;;;;;;;4971375;28;20560;-80
2022/09/11 10:16:19;;;;;;;5.07;3.60;;;;;;;;;;4957043;28;20102;-80
2022/09/11 10:18:46;;;;;;;4.97;3.35;;;;;;;;;;4971941;28;20059;-80
2022/09/11 10:21:12;;;;;;;5.30;3.80;;;;;;;;;;4972110;28;20959;-81
2022/09/11 10:23:47;;;;;;;4.95;3.33;;;;;;;;;;4972026;28;20039;-80
2022/09/11 10:26:17;;;;;;;6.60;5.30;;;;;;;;;;4982581;28;20157;-80
2022/09/11 10:28:45;;;;;;;6.43;4.80;;;;;;;;;;4970986;28;20046;-80
2022/09/11 10:31:13;;;;;;;5.00;4.40;;;;;;;;;;4969889;28;20058;-80
2022/09/11 10:33:41;;;;;;;7.78;5.88;;;;;;;;;;4971576;28;20043;-80
2022/09/11 10:36:08;;;;;;;7.55;6.82;;;;;;;;;;4986453;28;20057;-83
2022/09/11 10:38:44;;;;;;;7.22;6.05;;;;;;;;;;4991433;28;20090;-80
2022/09/11 10:41:18;;;;;;;8.55;7.40;;;;;;;;;;4972195;28;20097;-81
2022/09/11 10:43:54;;;;;;;8.73;7.55;;;;;;;;;;4984741;28;20324;-81
2022/09/11 10:46:20;;;;;;;11.27;8.02;;;;;;;;;;4991117;28;20092;-80
2022/09/11 10:48:59;;;;;;;6.68;5.55;;;;;;;;;;4980682;28;20068;-81
2022/09/11 10:51:26;;;;;;;6.35;5.70;;;;;;;;;;4974779;28;20070;-81
2022/09/11 10:53:58;;;;;;;4.95;4.05;;;;;;;;;;4974293;28;20488;-81
2022/09/11 10:56:25;;;;;;;6.22;4.70;;;;;;;;;;4976944;28;20042;-81
2022/09/11 10:58:53;;;;;;;5.47;4.82;;;;;;;;;;4977476;28;20049;-82
2022/09/11 11:01:19;;;;;;;5.43;4.93;;;;;;;;;;4979703;28;20434;-81
2022/09/11 11:03:45;;;;;;;6.95;5.00;;;;;;;;;;4977198;28;20034;-81
2022/09/11 11:06:20;;;;;;;7.18;4.68;;;;;;;;;;4976910;28;20125;-81
2022/09/11 11:09:05;;;;;;;6.03;4.57;;;;;;;;;;4977379;28;20050;-81
2022/09/11 11:11:39;;;;;;;5.65;3.65;;;;;;;;;;4988903;28;20048;-81
2022/09/11 11:14:10;;;;;;;5.75;4.07;;;;;;;;;;4988447;28;20054;-81
2022/09/11 11:16:38;;;;;;;5.13;3.80;;;;;;;;;;4990620;28;20070;-81
2022/09/11 11:19:07;;;;;;;4.18;3.60;;;;;;;;;;4970248;28;20058;-81
2022/09/11 11:21:40;;;;;;;6.07;4.43;;;;;;;;;;4986121;28;20083;-81
2022/09/11 11:24:16;;;;;;;8.00;5.85;;;;;;;;;;4987940;28;20050;-81
2022/09/11 11:26:47;;;;;;;6.22;5.60;;;;;;;;;;4972755;28;20101;-81
2022/09/11 11:29:22;;;;;;;6.63;5.22;;;;;;;;;;4970476;28;20046;-81
2022/09/11 11:31:54;;;;;;;6.57;5.80;;;;;;;;;;4987976;28;20046;-81
2022/09/11 11:34:39;;;;;;;6.70;5.32;;;;;;;;;;4988920;28;20113;-81
2022/09/11 11:37:14;;;;;;;6.88;4.97;;;;;;;;;;4989846;28;20114;-81
2022/09/11 11:39:40;;;;;;;6.90;6.20;;;;;;;;;;4987214;28;20523;-81
2022/09/11 11:42:25;;;;;;;7.90;5.00;;;;;;;;;;4988359;28;20522;-82
2022/09/11 11:44:57;;;;;;;6.10;4.35;;;;;;;;;;4988459;28;20093;-81
2022/09/11 11:47:26;;;;;;;15.70;4.57;;;;;;;;;;4988470;28;20046;-81
2022/09/11 11:50:12;;;;;;;5.55;4.50;;;;;;;;;;4984802;28;20291;-81
2022/09/11 11:52:45;;;;;;;5.70;4.07;;;;;;;;;;4988786;28;20061;-81
2022/09/11 11:55:20;;;;;;;5.57;4.32;;;;;;;;;;4988295;28;20599;-81
2022/09/11 11:57:53;;;;;;;5.30;4.10;;;;;;;;;;4970677;28;20109;-81
2022/09/11 12:00:20;;;;;;;4.10;3.70;;;;;;;;;;4968695;28;20140;-81
2022/09/11 12:02:49;;;;;;;5.45;4.78;;;;;;;;;;4984780;28;20072;-81
2022/09/11 12:05:17;;;;;;;4.72;4.20;;;;;;;;;;4985316;28;20097;-81
2022/09/11 12:07:46;;;;;;;5.47;4.18;;;;;;;;;;4977473;28;20404;-81
2022/09/11 12:10:20;;;;;;;5.30;4.80;;;;;;;;;;4980424;28;20161;-81
2022/09/11 12:12:48;;;;;;;5.60;4.80;;;;;;;;;;4971996;28;20050;-81
2022/09/11 12:15:19;;;;;;;5.55;4.70;;;;;;;;;;4979553;28;20054;-81
2022/09/11 12:17:46;;;;;;;8.43;5.22;;;;;;;;;;4985072;28;20054;-81
2022/09/11 12:20:14;;;;;;;9.80;6.05;;;;;;;;;;4974320;28;20171;-81
2022/09/11 12:22:45;;;;;;;6.57;5.57;;;;;;;;;;4979852;28;20054;-81
2022/09/11 12:25:35;;;;;;;7.60;5.55;;;;;;;;;;4986252;28;20555;-81
2022/09/11 12:28:10;;;;;;;8.18;5.53;;;;;;;;;;4971981;28;20050;-81
2022/09/11 12:30:55;;;;;;;6.15;5.43;;;;;;;;;;4969182;28;20054;-82
2022/09/11 12:33:39;;;;;;;6.32;5.20;;;;;;;;;;4992348;28;20530;-81
2022/09/11 12:36:07;;;;;;;7.93;4.65;;;;;;;;;;4981837;28;20034;-81
2022/09/11 12:38:39;;;;;;;6.03;4.43;;;;;;;;;;4977472;28;20082;-81
2022/09/11 12:41:16;;;;;;;6.22;4.60;;;;;;;;;;4972551;28;20065;-81
2022/09/11 12:43:42;;;;;;;4.43;4.00;;;;;;;;;;4979885;28;20082;-82
2022/09/11 12:46:13;;;;;;;5.45;3.97;;;;;;;;;;4981363;28;20518;-81
2022/09/11 12:48:44;;;;;;;6.00;4.38;;;;;;;;;;4976529;28;20065;-81
2022/09/11 12:51:28;;;;;;;5.30;3.85;;;;;;;;;;4979852;28;20035;-81
2022/09/11 12:53:59;;;;;;;4.65;4.25;;;;;;;;;;4992774;28;20050;-81
2022/09/11 12:56:26;;;;;;;5.75;3.50;;;;;;;;;;4977522;28;20085;-82
2022/09/11 12:58:54;;;;;;;6.43;3.85;;;;;;;;;;4978605;28;20109;-81
2022/09/11 13:01:29;;;;;;;5.53;3.90;;;;;;;;;;4978017;28;20171;-81
2022/09/11 13:04:11;;;;;;;6.80;3.88;;;;;;;;;;4985154;28;20082;-81
2022/09/11 13:06:37;;;;;;;5.85;3.47;;;;;;;;;;4974999;28;20054;-81
2022/09/11 13:09:04;;;;;;;4.20;3.78;;;;;;;;;;4977868;28;20046;-82
2022/09/11 13:11:35;;;;;;;5.20;3.67;;;;;;;;;;4983096;28;20049;-81
2022/09/11 13:14:01;;;;;;;6.38;3.67;;;;;;;;;;4975652;28;20543;-82
2022/09/11 13:16:29;;;;;;;6.57;5.60;;;;;;;;;;4985278;28;20046;-81
2022/09/11 13:19:15;;;;;;;5.68;4.65;;;;;;;;;;4955602;28;20064;-81
2022/09/11 13:21:43;;;;;;;4.82;3.75;;;;;;;;;;4973616;28;20050;-81
2022/09/11 13:24:22;;;;;;;5.78;4.15;;;;;;;;;;4972467;28;20043;-80
2022/09/11 13:26:54;;;;;;;5.05;4.55;;;;;;;;;;4972731;28;20108;-92
2022/09/11 13:29:20;;;;;;;6.43;5.82;;;;;;;;;;4972952;28;20130;-81
2022/09/11 13:31:46;;;;;;;6.22;5.60;;;;;;;;;;4979100;28;20051;-81
2022/09/11 13:34:14;;;;;;;5.93;5.28;;;;;;;;;;4989463;28;20182;-88
2022/09/11 13:36:40;;;;;;;6.10;4.70;;;;;;;;;;4979401;28;20050;-80
2022/09/11 13:39:08;;;;;;;7.03;4.57;;;;;;;;;;4976613;28;20080;-80
2022/09/11 13:41:37;;;;;;;6.15;4.50;;;;;;;;;;4972040;28;20531;-80
2022/09/11 13:44:03;;;;;;;6.22;4.55;;;;;;;;;;4981468;28;20404;-81
2022/09/11 13:46:33;;;;;;;34.20;5.38;;;;;;;;;;4972800;28;20047;-81
2022/09/11 13:49:05;;;;;;;4.70;3.70;;;;;;;;;;4972878;28;20049;-82
2022/09/11 13:51:32;;;;;;;5.55;3.30;;;;;;;;;;4977415;28;20491;-82
2022/09/11 13:54:10;;;;;;;7.35;3.50;;;;;;;;;;4978035;28;20171;-82
2022/09/11 13:57:04;;;;;;;5.93;4.05;;;;;;;;;;4978885;28;20316;-82
2022/09/11 13:59:37;;;;;;;5.82;4.68;;;;;;;;;;4983629;28;20042;-82
2022/09/11 14:02:07;;;;;;;7.53;3.80;;;;;;;;;;4979939;28;20046;-87
2022/09/11 14:04:40;;;;;;;6.55;4.15;;;;;;;;;;4972034;28;20076;-82
2022/09/11 14:07:14;;;;;;;5.10;3.58;;;;;;;;;;4972038;28;20109;-83
2022/09/11 14:09:41;;;;;;;5.43;4.00;;;;;;;;;;4972305;28;20049;-83
2022/09/11 14:12:07;;;;;;;5.65;3.83;;;;;;;;;;4970810;28;20496;-83
2022/09/11 14:14:34;;;;;;;4.93;3.70;;;;;;;;;;4972154;28;20043;-83
2022/09/11 14:17:00;;;;;;;6.53;3.90;;;;;;;;;;4983155;28;20105;-83
2022/09/11 14:19:28;;;;;;;5.18;3.75;;;;;;;;;;4969718;28;20051;-85
2022/09/11 14:21:54;;;;;;;5.00;3.63;;;;;;;;;;4978994;28;20053;-83
2022/09/11 14:24:32;;;;;;;5.80;4.28;;;;;;;;;;4972127;28;20047;-82
2022/09/11 14:27:00;;;;;;;5.60;4.60;;;;;;;;;;4974612;28;20053;-83
2022/09/11 14:29:29;;;;;;;6.95;4.70;;;;;;;;;;4972263;28;20130;-83
2022/09/11 14:32:15;;;;;;;6.20;4.45;;;;;;;;;;4970633;28;20046;-83
2022/09/11 14:34:41;;;;;;;4.68;3.60;;;;;;;;;;4971621;28;20042;-83
2022/09/11 14:37:11;;;;;;;5.50;3.88;;;;;;;;;;4970199;28;20145;-83
2022/09/11 14:39:46;;;;;;;5.28;3.30;;;;;;;;;;4985889;28;20059;-83
2022/09/11 14:42:14;;;;;;;4.57;3.30;;;;;;;;;;4970411;28;20047;-83
2022/09/11 14:44:41;;;;;;;3.92;3.15;;;;;;;;;;4987413;28;20050;-84